createdAt,value
2019-04-27T00:01:10.624Z,10.20
2019-04-27T00:03:58.172Z,10.30
2019-04-27T00:06:26.790Z,10.20
2019-04-27T00:08:57.901Z,10.30
2019-04-27T00:11:45.421Z,10.20
2019-04-27T00:14:16.686Z,10.20
2019-04-27T00:17:04.293Z,10.20
2019-04-27T00:19:48.102Z,10.20
2019-04-27T00:22:30.015Z,10.10
2019-04-27T00:24:57.324Z,10.10
2019-04-27T00:27:25.165Z,10.00
2019-04-27T00:29:53.517Z,10.00
2019-04-27T00:32:23.031Z,10.10
2019-04-27T00:34:51.189Z,10.00
2019-04-27T00:37:30.161Z,10.00
2019-04-27T00:40:20.648Z,10.00
2019-04-27T00:42:48.012Z,10.00
2019-04-27T00:45:15.798Z,10.00
2019-04-27T00:47:54.602Z,10.00
2019-04-27T00:50:13.503Z,10.10
2019-04-27T00:52:42.645Z,10.20
2019-04-27T00:55:10.852Z,10.20
2019-04-27T00:57:49.157Z,10.10
2019-04-27T01:00:33.721Z,10.10
2019-04-27T01:03:09.994Z,10.20
2019-04-27T01:05:37.693Z,10.20
2019-04-27T01:08:05.341Z,10.10
2019-04-27T01:10:33.506Z,10.10
2019-04-27T01:13:03.154Z,10.10
2019-04-27T01:15:31.003Z,10.20
2019-04-27T01:18:11.508Z,10.20
2019-04-27T01:20:30.113Z,10.20
2019-04-27T01:22:59.463Z,10.10
2019-04-27T01:25:34.262Z,10.10
2019-04-27T01:28:28.951Z,10.10
2019-04-27T01:31:01.469Z,10.10
2019-04-27T01:33:30.314Z,10.10
2019-04-27T01:35:58.906Z,10.10
2019-04-27T01:38:26.858Z,10.10
2019-04-27T01:40:54.242Z,10.00
2019-04-27T01:43:22.082Z,10.10
2019-04-27T01:45:49.304Z,10.10
2019-04-27T01:48:23.777Z,10.00
2019-04-27T01:50:46.476Z,10.00
2019-04-27T01:53:14.714Z,9.90
2019-04-27T01:55:41.954Z,9.80
2019-04-27T01:58:11.007Z,9.80
2019-04-27T02:01:09.744Z,9.80
2019-04-27T02:03:48.947Z,9.90
2019-04-27T02:06:16.397Z,9.90
2019-04-27T02:08:43.795Z,9.80
2019-04-27T02:11:11.836Z,9.80
2019-04-27T02:13:39.545Z,9.80
2019-04-27T02:16:08.910Z,9.70
2019-04-27T02:18:38.267Z,9.60
2019-04-27T02:21:06.653Z,9.60
2019-04-27T02:23:34.332Z,9.50
2019-04-27T02:26:03.589Z,9.50
2019-04-27T02:28:52.385Z,9.60
2019-04-27T02:31:34.536Z,9.50
2019-04-27T02:34:05.533Z,9.40
2019-04-27T02:36:33.950Z,9.20
2019-04-27T02:39:01.178Z,9.10
2019-04-27T02:41:30.440Z,9.00
2019-04-27T02:44:15.334Z,9.10
2019-04-27T02:46:43.001Z,9.20
2019-04-27T02:49:10.910Z,9.20
2019-04-27T02:51:56.821Z,9.30
2019-04-27T02:54:23.847Z,9.30
2019-04-27T02:56:52.817Z,9.40
2019-04-27T02:59:20.892Z,9.40
2019-04-27T03:02:00.540Z,9.40
2019-04-27T03:04:26.889Z,9.50
2019-04-27T03:06:54.614Z,9.60
2019-04-27T03:09:22.419Z,9.60
2019-04-27T03:11:50.247Z,9.60
2019-04-27T03:14:56.017Z,9.60
2019-04-27T03:17:50.174Z,9.60
2019-04-27T03:20:35.734Z,9.60
2019-04-27T03:23:05.553Z,9.70
2019-04-27T03:25:41.735Z,9.60
2019-04-27T03:28:13.448Z,9.70
2019-04-27T03:30:43.011Z,9.70
2019-04-27T03:33:12.155Z,9.60
2019-04-27T03:35:43.149Z,9.60
2019-04-27T03:38:10.614Z,9.60
2019-04-27T03:40:40.303Z,9.60
2019-04-27T03:43:20.688Z,9.60
2019-04-27T03:45:51.808Z,9.70
2019-04-27T03:48:17.295Z,9.70
2019-04-27T03:51:01.346Z,9.60
2019-04-27T03:53:51.321Z,9.60
2019-04-27T03:56:41.127Z,9.60
2019-04-27T03:59:26.925Z,9.70
2019-04-27T04:01:55.291Z,9.60
2019-04-27T04:04:22.781Z,9.60
2019-04-27T04:06:50.709Z,9.50
2019-04-27T04:09:20.549Z,9.40
2019-04-27T04:12:02.818Z,9.40
2019-04-27T04:14:30.662Z,9.40
2019-04-27T04:17:02.813Z,9.30
2019-04-27T04:19:47.385Z,9.40
2019-04-27T04:22:00.450Z,9.40
2019-04-27T04:24:29.304Z,9.40
2019-04-27T04:26:59.926Z,9.50
2019-04-27T04:29:26.940Z,9.50
2019-04-27T04:31:54.737Z,9.60
2019-04-27T04:34:22.662Z,9.50
2019-04-27T04:36:50.540Z,9.50
2019-04-27T04:39:19.750Z,9.50
2019-04-27T04:42:11.323Z,9.60
2019-04-27T04:44:57.002Z,9.60
2019-04-27T04:47:44.478Z,9.60
2019-04-27T04:50:14.984Z,9.50
2019-04-27T04:52:42.512Z,9.50
2019-04-27T04:55:10.331Z,9.50
2019-04-27T04:57:39.998Z,9.60
2019-04-27T05:00:09.699Z,9.70
2019-04-27T05:02:36.598Z,9.90
2019-04-27T05:05:04.257Z,10.50
2019-04-27T05:07:31.738Z,12.20
2019-04-27T05:09:59.306Z,12.80
2019-04-27T05:12:26.538Z,12.20
2019-04-27T05:14:53.807Z,11.60
2019-04-27T05:17:21.249Z,11.20
2019-04-27T05:19:49.466Z,13.30
2019-04-27T05:22:16.733Z,13.50
2019-04-27T05:24:44.556Z,12.90
2019-04-27T05:27:11.839Z,15.00
2019-04-27T05:29:39.286Z,15.00
2019-04-27T05:32:08.885Z,14.80
2019-04-27T05:34:36.974Z,14.60
2019-04-27T05:37:04.868Z,14.50
2019-04-27T05:39:32.759Z,14.30
2019-04-27T05:42:00.074Z,14.10
2019-04-27T05:44:53.942Z,13.70
2019-04-27T05:47:48.414Z,13.30
2019-04-27T05:50:20.131Z,13.00
2019-04-27T05:52:46.492Z,12.80
2019-04-27T05:55:14.009Z,12.50
2019-04-27T05:57:42.309Z,12.30
2019-04-27T06:00:10.937Z,12.10
2019-04-27T06:02:41.858Z,11.90
2019-04-27T06:05:09.695Z,11.70
2019-04-27T06:07:37.406Z,11.60
2019-04-27T06:10:05.301Z,11.50
2019-04-27T06:12:32.594Z,11.50
2019-04-27T06:15:00.239Z,11.40
2019-04-27T06:17:29.918Z,11.40
2019-04-27T06:19:59.447Z,11.40
2019-04-27T06:22:29.193Z,11.30
2019-04-27T06:24:57.305Z,11.40
2019-04-27T06:27:24.375Z,11.30
2019-04-27T06:29:52.041Z,11.30
2019-04-27T06:32:19.245Z,11.30
2019-04-27T06:34:46.551Z,11.30
2019-04-27T06:37:14.335Z,11.20
2019-04-27T06:39:41.296Z,11.20
2019-04-27T06:42:16.775Z,11.30
2019-04-27T06:44:39.505Z,11.20
2019-04-27T06:47:09.014Z,11.30
2019-04-27T06:49:36.676Z,11.40
2019-04-27T06:52:03.991Z,11.30
2019-04-27T06:54:32.071Z,11.40
2019-04-27T06:56:59.544Z,11.30
2019-04-27T06:59:28.891Z,11.40
2019-04-27T07:01:59.289Z,11.40
2019-04-27T07:04:26.795Z,11.40
2019-04-27T07:06:56.232Z,11.40
2019-04-27T07:09:24.401Z,11.50
2019-04-27T07:11:51.825Z,11.60
2019-04-27T07:14:19.671Z,11.70
2019-04-27T07:16:48.841Z,11.70
2019-04-27T07:19:19.012Z,11.80
2019-04-27T07:21:46.890Z,11.70
2019-04-27T07:24:14.450Z,11.90
2019-04-27T07:26:42.449Z,11.90
2019-04-27T07:29:09.924Z,12.00
2019-04-27T07:31:39.790Z,12.00
2019-04-27T07:34:09.170Z,11.90
2019-04-27T07:36:36.761Z,11.90
2019-04-27T07:39:06.597Z,11.80
2019-04-27T07:41:34.262Z,11.90
2019-04-27T07:44:08.693Z,12.00
2019-04-27T07:46:36.033Z,12.10
2019-04-27T07:49:04.280Z,12.20
2019-04-27T07:51:34.314Z,12.20
2019-04-27T07:54:01.039Z,12.20
2019-04-27T07:56:29.194Z,12.30
2019-04-27T07:58:56.929Z,12.30
2019-04-27T08:01:25.365Z,12.40
2019-04-27T08:03:53.205Z,12.40
2019-04-27T08:06:20.813Z,12.50
2019-04-27T08:08:49.240Z,12.60
2019-04-27T08:11:19.273Z,12.60
2019-04-27T08:13:48.936Z,12.80
2019-04-27T08:16:18.354Z,12.80
2019-04-27T08:18:46.364Z,12.90
2019-04-27T08:21:13.937Z,12.90
2019-04-27T08:23:41.529Z,13.10
2019-04-27T08:26:18.713Z,13.10
2019-04-27T08:29:08.588Z,13.20
2019-04-27T08:31:48.624Z,13.20
2019-04-27T08:34:35.909Z,13.30
2019-04-27T08:37:03.944Z,13.30
2019-04-27T08:39:31.341Z,13.30
2019-04-27T08:41:59.485Z,13.20
2019-04-27T08:44:27.218Z,13.20
2019-04-27T08:46:54.968Z,13.30
2019-04-27T08:49:23.942Z,13.30
2019-04-27T08:51:59.235Z,13.30
2019-04-27T08:54:21.857Z,13.30
2019-04-27T08:56:50.960Z,13.30
2019-04-27T08:59:19.449Z,13.50
2019-04-27T09:01:49.198Z,13.60
2019-04-27T09:04:19.904Z,13.60
2019-04-27T09:06:50.208Z,13.50
2019-04-27T09:09:41.089Z,13.30
2019-04-27T09:12:41.552Z,13.30
2019-04-27T09:15:29.275Z,13.30
2019-04-27T09:17:58.748Z,13.30
2019-04-27T09:20:29.913Z,13.10
2019-04-27T09:22:57.157Z,13.00
2019-04-27T09:25:24.225Z,12.90
2019-04-27T09:27:52.004Z,12.80
2019-04-27T09:30:19.549Z,12.80
2019-04-27T09:32:47.390Z,12.80
2019-04-27T09:35:16.156Z,12.90
2019-04-27T09:37:45.784Z,13.00
2019-04-27T09:40:14.799Z,13.00
2019-04-27T09:42:43.689Z,13.10
2019-04-27T09:45:11.549Z,13.30
2019-04-27T09:47:39.541Z,13.20
2019-04-27T09:50:07.141Z,13.40
2019-04-27T09:52:35.866Z,13.50
2019-04-27T09:55:03.188Z,13.50
2019-04-27T09:57:30.829Z,13.30
2019-04-27T09:59:58.673Z,13.40
2019-04-27T10:02:27.004Z,13.40
2019-04-27T10:04:56.476Z,13.40
2019-04-27T10:07:23.994Z,13.70
2019-04-27T10:09:51.331Z,13.60
2019-04-27T10:12:19.289Z,13.40
2019-04-27T10:14:47.729Z,13.10
2019-04-27T10:17:15.682Z,12.80
2019-04-27T10:19:43.018Z,12.60
2019-04-27T10:22:10.969Z,12.60
2019-04-27T10:24:38.637Z,12.50
2019-04-27T10:27:07.965Z,12.60
2019-04-27T10:29:35.627Z,12.50
2019-04-27T10:32:03.171Z,12.50
2019-04-27T10:34:30.494Z,12.50
2019-04-27T10:36:57.741Z,12.60
2019-04-27T10:39:27.785Z,12.60
2019-04-27T10:41:56.347Z,12.70
2019-04-27T10:44:26.558Z,12.80
2019-04-27T10:46:54.025Z,12.70
2019-04-27T10:49:21.129Z,12.80
2019-04-27T10:51:48.964Z,12.90
2019-04-27T10:54:16.669Z,12.80
2019-04-27T10:56:49.015Z,12.80
2019-04-27T10:59:16.717Z,12.90
2019-04-27T11:01:45.892Z,12.90
2019-04-27T11:04:39.421Z,12.80
2019-04-27T11:07:10.573Z,12.80
2019-04-27T11:09:38.321Z,12.80
2019-04-27T11:12:06.931Z,12.90
2019-04-27T11:14:34.737Z,12.90
2019-04-27T11:17:03.981Z,12.80
2019-04-27T11:19:32.459Z,12.80
2019-04-27T11:22:00.323Z,12.90
2019-04-27T11:24:28.006Z,12.90
2019-04-27T11:26:56.730Z,12.90
2019-04-27T11:29:25.947Z,13.00
2019-04-27T11:31:55.505Z,13.10
2019-04-27T11:34:42.894Z,13.10
2019-04-27T11:37:10.298Z,13.10
2019-04-27T11:39:38.217Z,13.10
2019-04-27T11:42:05.833Z,13.00
2019-04-27T11:44:33.208Z,12.90
2019-04-27T11:47:00.918Z,12.90
2019-04-27T11:49:28.499Z,12.90
2019-04-27T11:51:57.201Z,13.10
2019-04-27T11:54:25.584Z,13.20
2019-04-27T11:56:55.994Z,13.30
2019-04-27T11:59:23.777Z,13.30
2019-04-27T12:01:51.654Z,13.40
2019-04-27T12:04:19.057Z,13.30
2019-04-27T12:06:46.732Z,13.20
2019-04-27T12:09:14.201Z,13.20
2019-04-27T12:11:42.168Z,13.10
2019-04-27T12:14:09.682Z,13.00
2019-04-27T12:16:37.016Z,13.00
2019-04-27T12:19:06.324Z,12.90
2019-04-27T12:21:33.665Z,12.80
2019-04-27T12:24:01.413Z,12.80
2019-04-27T12:26:47.229Z,12.70
2019-04-27T12:29:17.976Z,12.80
2019-04-27T12:31:48.754Z,12.70
2019-04-27T12:34:16.299Z,12.90
2019-04-27T12:36:45.833Z,12.80
2019-04-27T12:39:15.521Z,12.70
2019-04-27T12:41:43.618Z,12.70
2019-04-27T12:44:11.478Z,12.90
2019-04-27T12:46:38.897Z,12.80
2019-04-27T12:49:07.266Z,12.90
2019-04-27T12:51:35.526Z,13.00
2019-04-27T12:54:17.055Z,13.00
2019-04-27T12:57:02.915Z,13.00
2019-04-27T12:59:48.494Z,13.00
2019-04-27T13:02:16.550Z,13.10
2019-04-27T13:04:44.470Z,13.10
2019-04-27T13:07:12.083Z,13.10
2019-04-27T13:09:40.017Z,13.10
2019-04-27T13:12:07.629Z,13.10
2019-04-27T13:14:36.505Z,13.20
2019-04-27T13:17:03.764Z,13.00
2019-04-27T13:19:31.346Z,13.00
2019-04-27T13:21:59.536Z,13.20
2019-04-27T13:24:28.195Z,13.30
2019-04-27T13:26:56.364Z,13.50
2019-04-27T13:29:25.526Z,13.60
2019-04-27T13:31:53.495Z,13.80
2019-04-27T13:34:20.954Z,13.90
2019-04-27T13:36:48.624Z,14.00
2019-04-27T13:39:16.497Z,14.10
2019-04-27T13:41:44.094Z,14.20
2019-04-27T13:44:12.024Z,14.10
2019-04-27T13:46:57.285Z,14.10
2019-04-27T13:49:43.390Z,14.00
2019-04-27T13:52:16.395Z,13.90
2019-04-27T13:54:45.751Z,13.80
2019-04-27T13:57:13.651Z,13.80
2019-04-27T13:59:41.837Z,13.80
2019-04-27T14:02:10.065Z,13.80
2019-04-27T14:04:38.068Z,13.90
2019-04-27T14:07:05.781Z,14.00
2019-04-27T14:09:33.704Z,14.20
2019-04-27T14:12:07.986Z,14.20
2019-04-27T14:14:35.533Z,14.20
2019-04-27T14:17:03.059Z,14.30
2019-04-27T14:19:30.185Z,14.30
2019-04-27T14:21:59.087Z,14.50
2019-04-27T14:24:39.378Z,14.70
2019-04-27T14:27:08.317Z,14.80
2019-04-27T14:29:35.801Z,14.90
2019-04-27T14:32:03.633Z,15.00
2019-04-27T14:34:30.941Z,14.90
2019-04-27T14:36:58.844Z,14.70
2019-04-27T14:39:26.464Z,14.80
2019-04-27T14:41:54.450Z,14.60
2019-04-27T14:44:22.233Z,14.50
2019-04-27T14:46:50.061Z,14.40
2019-04-27T14:49:18.233Z,14.20
2019-04-27T14:51:56.091Z,14.10
2019-04-27T14:54:23.754Z,14.00
2019-04-27T14:56:51.340Z,13.20
2019-04-27T14:59:18.988Z,11.90
2019-04-27T15:01:48.655Z,11.00
2019-04-27T15:04:16.500Z,10.70
2019-04-27T15:06:45.625Z,10.50
2019-04-27T15:09:18.041Z,10.30
2019-04-27T15:11:45.063Z,10.20
2019-04-27T15:14:16.318Z,10.20
2019-04-27T15:16:47.117Z,10.20
2019-04-27T15:19:19.375Z,9.90
2019-04-27T15:21:56.432Z,10.00
2019-04-27T15:24:17.053Z,10.10
2019-04-27T15:26:44.691Z,9.90
2019-04-27T15:29:14.501Z,10.10
2019-04-27T15:31:48.432Z,10.10
2019-04-27T15:34:40.066Z,10.20
2019-04-27T15:37:28.134Z,10.40
2019-04-27T15:40:14.977Z,10.60
2019-04-27T15:42:51.795Z,10.60
2019-04-27T15:45:21.993Z,10.70
2019-04-27T15:47:54.276Z,10.60
2019-04-27T15:50:18.587Z,10.60
2019-04-27T15:52:48.780Z,10.50
2019-04-27T15:55:31.599Z,10.30
2019-04-27T15:57:46.970Z,10.30
2019-04-27T16:00:24.442Z,10.20
2019-04-27T16:02:52.767Z,10.30
2019-04-27T16:05:23.577Z,10.30
2019-04-27T16:07:50.292Z,10.40
2019-04-27T16:10:20.087Z,10.30
2019-04-27T16:13:05.726Z,10.10
2019-04-27T16:15:19.383Z,9.90
2019-04-27T16:17:53.210Z,9.80
2019-04-27T16:20:22.077Z,9.80
2019-04-27T16:22:45.789Z,9.70
2019-04-27T16:25:13.520Z,9.90
2019-04-27T16:27:40.981Z,9.90
2019-04-27T16:30:14.687Z,9.80
2019-04-27T16:32:40.335Z,9.70
2019-04-27T16:35:09.787Z,9.70
2019-04-27T16:38:00.012Z,9.70
2019-04-27T16:40:27.241Z,9.70
2019-04-27T16:42:55.100Z,9.80
2019-04-27T16:45:27.007Z,9.90
2019-04-27T16:47:56.590Z,10.00
2019-04-27T16:50:25.452Z,10.10
2019-04-27T16:52:56.888Z,10.10
2019-04-27T16:55:22.077Z,10.20
2019-04-27T16:57:49.305Z,10.20
2019-04-27T17:00:22.578Z,10.10
2019-04-27T17:02:49.192Z,10.10
2019-04-27T17:05:19.565Z,10.10
2019-04-27T17:07:47.652Z,10.20
2019-04-27T17:10:16.312Z,10.30
2019-04-27T17:12:46.102Z,10.40
2019-04-27T17:15:31.444Z,10.50
2019-04-27T17:18:20.012Z,10.50
2019-04-27T17:20:48.420Z,10.40
2019-04-27T17:23:26.225Z,10.40
2019-04-27T17:25:57.150Z,10.40
2019-04-27T17:28:27.946Z,10.20
2019-04-27T17:30:55.464Z,10.20
2019-04-27T17:33:29.177Z,10.20
2019-04-27T17:35:57.676Z,10.10
2019-04-27T17:38:26.461Z,10.20
2019-04-27T17:40:54.189Z,10.20
2019-04-27T17:43:21.641Z,10.20
2019-04-27T17:45:49.489Z,10.20
2019-04-27T17:48:18.332Z,10.20
2019-04-27T17:50:46.042Z,10.20
2019-04-27T17:53:13.769Z,10.20
2019-04-27T17:55:40.985Z,10.20
2019-04-27T17:58:09.501Z,10.20
2019-04-27T18:00:42.970Z,10.00
2019-04-27T18:03:08.267Z,10.00
2019-04-27T18:05:36.114Z,10.00
2019-04-27T18:08:03.889Z,10.00
2019-04-27T18:10:31.612Z,10.10
2019-04-27T18:12:59.941Z,10.00
2019-04-27T18:15:28.752Z,10.00
2019-04-27T18:17:59.196Z,10.10
2019-04-27T18:20:26.612Z,10.00
2019-04-27T18:23:00.361Z,10.00
2019-04-27T18:25:28.691Z,9.90
2019-04-27T18:28:18.675Z,9.90
2019-04-27T18:31:15.887Z,9.90
2019-04-27T18:33:41.301Z,9.80
2019-04-27T18:36:13.709Z,9.40
2019-04-27T18:38:39.231Z,9.20
2019-04-27T18:41:11.279Z,9.10
2019-04-27T18:43:38.435Z,8.90
2019-04-27T18:46:06.041Z,8.70
2019-04-27T18:48:56.037Z,8.80
2019-04-27T18:51:34.125Z,8.80
2019-04-27T18:54:03.581Z,8.80
2019-04-27T18:56:33.575Z,8.90
2019-04-27T18:59:02.021Z,9.00
2019-04-27T19:01:29.532Z,9.00
2019-04-27T19:03:58.632Z,9.00
2019-04-27T19:06:28.980Z,9.10
2019-04-27T19:08:56.134Z,9.00
2019-04-27T19:11:25.115Z,9.00
2019-04-27T19:13:52.997Z,9.00
2019-04-27T19:16:22.276Z,9.10
2019-04-27T19:18:50.197Z,9.10
2019-04-27T19:21:19.814Z,9.00
2019-04-27T19:23:49.149Z,9.00
2019-04-27T19:26:31.425Z,8.80
2019-04-27T19:29:08.624Z,8.80
2019-04-27T19:31:40.045Z,8.80
2019-04-27T19:34:08.217Z,8.60
2019-04-27T19:36:36.088Z,8.60
2019-04-27T19:39:05.316Z,8.60
2019-04-27T19:41:34.881Z,8.60
2019-04-27T19:44:02.397Z,8.60
2019-04-27T19:46:30.555Z,8.60
2019-04-27T19:48:59.219Z,8.50
2019-04-27T19:51:28.211Z,8.50
2019-04-27T19:53:58.040Z,8.60
2019-04-27T19:56:25.821Z,8.50
2019-04-27T19:58:58.089Z,8.50
2019-04-27T20:01:29.941Z,8.50
2019-04-27T20:04:02.355Z,8.50
2019-04-27T20:06:31.267Z,8.40
2019-04-27T20:09:01.001Z,8.40
2019-04-27T20:11:30.597Z,8.50
2019-04-27T20:13:57.993Z,8.40
2019-04-27T20:16:25.594Z,8.30
2019-04-27T20:18:53.202Z,8.20
2019-04-27T20:21:21.037Z,8.20
2019-04-27T20:23:50.669Z,8.10
2019-04-27T20:26:20.858Z,8.10
2019-04-27T20:28:49.002Z,8.00
2019-04-27T20:31:16.721Z,7.90
2019-04-27T20:33:44.530Z,8.00
2019-04-27T20:36:12.218Z,8.10
2019-04-27T20:38:39.687Z,8.10
2019-04-27T20:41:07.658Z,8.00
2019-04-27T20:43:35.998Z,8.10
2019-04-27T20:46:03.766Z,7.90
2019-04-27T20:48:31.960Z,7.80
2019-04-27T20:51:01.291Z,7.80
2019-04-27T20:53:34.062Z,7.90
2019-04-27T20:56:02.283Z,7.90
2019-04-27T20:58:31.133Z,8.00
2019-04-27T21:00:59.086Z,8.00
2019-04-27T21:03:34.394Z,8.00
2019-04-27T21:06:36.770Z,8.10
2019-04-27T21:09:14.455Z,8.20
2019-04-27T21:11:48.626Z,8.10
2019-04-27T21:14:16.438Z,8.00
2019-04-27T21:16:44.124Z,7.90
2019-04-27T21:19:12.168Z,7.90
2019-04-27T21:21:40.731Z,7.90
2019-04-27T21:24:10.054Z,8.00
2019-04-27T21:26:37.812Z,8.00
2019-04-27T21:29:05.371Z,8.00
2019-04-27T21:31:33.080Z,8.00
2019-04-27T21:34:00.815Z,8.00
2019-04-27T21:36:30.877Z,8.00
2019-04-27T21:38:59.231Z,7.90
2019-04-27T21:41:26.562Z,8.00
2019-04-27T21:43:54.354Z,8.00
2019-04-27T21:46:22.916Z,8.00
2019-04-27T21:48:50.367Z,8.10
2019-04-27T21:51:18.585Z,8.10
2019-04-27T21:54:05.990Z,8.10
2019-04-27T21:56:33.693Z,8.10
2019-04-27T21:59:01.838Z,8.10
2019-04-27T22:01:31.841Z,8.00
2019-04-27T22:04:02.142Z,7.90
2019-04-27T22:06:29.981Z,8.00
2019-04-27T22:08:58.038Z,8.00
2019-04-27T22:11:25.839Z,7.90
2019-04-27T22:13:54.222Z,7.90
2019-04-27T22:16:22.203Z,7.90
2019-04-27T22:18:51.747Z,7.90
2019-04-27T22:21:21.429Z,8.00
2019-04-27T22:24:13.003Z,8.00
2019-04-27T22:26:41.508Z,8.00
2019-04-27T22:29:11.890Z,8.10
2019-04-27T22:31:41.402Z,8.00
2019-04-27T22:34:10.819Z,8.10
2019-04-27T22:36:39.396Z,8.00
2019-04-27T22:39:41.619Z,8.00
2019-04-27T22:42:27.428Z,7.90
2019-04-27T22:45:07.792Z,7.90
2019-04-27T22:47:35.817Z,8.00
2019-04-27T22:50:04.020Z,8.00
2019-04-27T22:52:31.602Z,8.00
2019-04-27T22:55:01.573Z,7.90
2019-04-27T22:57:38.996Z,7.90
2019-04-27T23:00:33.322Z,7.80
2019-04-27T23:03:03.164Z,7.80
2019-04-27T23:05:32.024Z,7.90
2019-04-27T23:08:01.764Z,7.90
2019-04-27T23:10:31.502Z,7.90
2019-04-27T23:13:01.005Z,7.90
2019-04-27T23:15:34.995Z,7.90
2019-04-27T23:18:02.551Z,7.90
2019-04-27T23:20:32.042Z,7.90
2019-04-27T23:23:02.580Z,7.90
2019-04-27T23:25:29.323Z,7.80
2019-04-27T23:27:57.353Z,7.80
2019-04-27T23:30:37.962Z,7.70
2019-04-27T23:33:05.572Z,7.70
2019-04-27T23:35:33.299Z,7.80
2019-04-27T23:38:14.469Z,7.60
2019-04-27T23:40:31.738Z,7.60
2019-04-27T23:42:58.937Z,7.70
2019-04-27T23:45:26.590Z,7.60
2019-04-27T23:47:54.338Z,7.60
2019-04-27T23:50:21.955Z,7.60
2019-04-27T23:53:02.486Z,7.70
2019-04-27T23:55:32.409Z,7.70
2019-04-27T23:58:00.653Z,7.60
